Terminal Aerodrome Forecast
Issued by NWS Charleston, WV

Home | Current Version | Previous Version | Text Only | Print | Product List | Glossary On
Versions: 1 2 3 4 5 6 7 8 9 10 11 12 13 14 15 16 17 18 19 20 21 22 23 24 25 26 27 28 29 30 31 32
000
FTUS41 KRLX 301900 AAA
TAFEKN
TAF AMD
KEKN 301938Z 3020/3118 31013G24KT P6SM -SHSN BKN025
     FM310000 29013G23KT P6SM BKN020
     FM311100 28011G19KT P6SM SCT020
     FM311400 27007KT P6SM SCT025=

USA.gov is the U.S. government's official web portal to all federal, state and local government web resources and services.